Time;durP1;ratioP1;P1;durP2;ratioP2;P2;SDS_P1;SDS_P2;PMS_P1;PMS_P2;Temp;Humidity;BMP_temperature;BMP_pressure;BME280_temperature;BME280_humidity;BME280_pressure;Samples;Min_cycle;Max_cycle;Signal;HPM_P1;HPM_P2
2022/05/31 00:00:39;;;;;;;7.32;6.50;;;;;;;;;;5187458;28;20520;-59
2022/05/31 00:03:09;;;;;;;9.40;6.55;;;;;;;;;;5187220;28;20539;-61
2022/05/31 00:05:39;;;;;;;7.78;6.85;;;;;;;;;;5187189;28;20025;-60
2022/05/31 00:08:09;;;;;;;8.43;7.78;;;;;;;;;;5187581;28;20028;-58
2022/05/31 00:10:40;;;;;;;6.70;6.20;;;;;;;;;;5187588;28;20025;-59
2022/05/31 00:13:10;;;;;;;7.63;6.93;;;;;;;;;;5187546;28;20101;-60
2022/05/31 00:15:40;;;;;;;9.07;6.55;;;;;;;;;;5204551;28;20060;-58
2022/05/31 00:18:14;;;;;;;7.32;6.75;;;;;;;;;;5186879;28;20017;-59
2022/05/31 00:20:44;;;;;;;7.47;6.97;;;;;;;;;;5187108;28;20028;-59
2022/05/31 00:23:14;;;;;;;6.93;6.40;;;;;;;;;;5187521;28;20029;-59
2022/05/31 00:25:45;;;;;;;9.02;6.53;;;;;;;;;;5187269;28;20013;-59
2022/05/31 00:28:16;;;;;;;7.80;7.07;;;;;;;;;;5187708;28;20060;-61
2022/05/31 00:30:46;;;;;;;8.30;7.70;;;;;;;;;;5205247;28;20045;-61
2022/05/31 00:33:16;;;;;;;7.80;7.10;;;;;;;;;;5187485;28;20026;-60
2022/05/31 00:35:48;;;;;;;8.13;7.40;;;;;;;;;;5187357;28;20057;-60
2022/05/31 00:38:19;;;;;;;6.20;5.90;;;;;;;;;;5187708;28;20021;-60
2022/05/31 00:40:50;;;;;;;6.72;6.32;;;;;;;;;;5187895;28;20040;-59
2022/05/31 00:43:22;;;;;;;8.77;8.02;;;;;;;;;;5187977;28;20100;-58
2022/05/31 00:45:55;;;;;;;10.20;7.63;;;;;;;;;;5187129;28;20033;-60
2022/05/31 00:48:26;;;;;;;7.38;6.93;;;;;;;;;;5189817;28;20033;-60
2022/05/31 00:51:16;;;;;;;8.63;8.10;;;;;;;;;;5191524;28;20454;-60
2022/05/31 00:53:48;;;;;;;9.63;8.85;;;;;;;;;;5190663;28;20037;-60
2022/05/31 00:56:23;;;;;;;8.18;7.72;;;;;;;;;;5191267;28;20028;-60
2022/05/31 00:59:13;;;;;;;7.18;6.68;;;;;;;;;;5190847;28;20603;-60
2022/05/31 01:01:47;;;;;;;8.60;8.00;;;;;;;;;;5191169;28;20030;-61
2022/05/31 01:04:17;;;;;;;7.28;6.88;;;;;;;;;;5191016;28;20025;-59
2022/05/31 01:06:48;;;;;;;9.77;7.47;;;;;;;;;;5190897;28;20144;-62
2022/05/31 01:09:18;;;;;;;8.80;7.75;;;;;;;;;;5191190;28;20033;-61
2022/05/31 01:11:48;;;;;;;8.88;8.23;;;;;;;;;;5190791;28;20028;-60
2022/05/31 01:14:19;;;;;;;7.60;7.00;;;;;;;;;;5190708;28;20017;-60
2022/05/31 01:17:12;;;;;;;8.73;7.97;;;;;;;;;;5190816;28;20473;-59
2022/05/31 01:20:01;;;;;;;7.60;7.20;;;;;;;;;;5177975;28;20044;-63
2022/05/31 01:22:42;;;;;;;8.93;7.10;;;;;;;;;;5190895;28;20185;-59
2022/05/31 01:25:13;;;;;;;9.18;7.32;;;;;;;;;;5190536;28;20129;-63
2022/05/31 01:28:06;;;;;;;10.20;9.25;;;;;;;;;;5190456;28;20116;-62
2022/05/31 01:30:45;;;;;;;13.38;8.30;;;;;;;;;;5178080;28;20029;-59
2022/05/31 01:33:34;;;;;;;8.85;7.95;;;;;;;;;;5190630;28;20075;-62
2022/05/31 01:36:08;;;;;;;9.60;8.52;;;;;;;;;;5190713;28;20033;-62
2022/05/31 01:38:47;;;;;;;6.45;6.15;;;;;;;;;;5207363;28;20026;-61
2022/05/31 01:41:21;;;;;;;8.95;8.18;;;;;;;;;;5190174;28;20033;-59
2022/05/31 01:43:53;;;;;;;8.15;7.28;;;;;;;;;;5190206;28;20017;-61
2022/05/31 01:46:28;;;;;;;7.85;7.35;;;;;;;;;;5189522;28;20029;-58
2022/05/31 01:49:00;;;;;;;7.95;7.03;;;;;;;;;;5189725;28;20113;-60
2022/05/31 01:51:30;;;;;;;9.15;8.43;;;;;;;;;;5189917;28;20017;-63
2022/05/31 01:54:01;;;;;;;8.90;8.10;;;;;;;;;;5190037;28;20009;-62
2022/05/31 01:56:31;;;;;;;7.20;6.80;;;;;;;;;;5190723;28;20040;-61
2022/05/31 01:59:03;;;;;;;7.93;7.32;;;;;;;;;;5190492;28;20106;-60
2022/05/31 02:01:35;;;;;;;10.23;9.27;;;;;;;;;;5191038;28;20037;-59
2022/05/31 02:04:06;;;;;;;7.50;6.95;;;;;;;;;;5190777;28;20022;-59
2022/05/31 02:06:38;;;;;;;10.27;8.57;;;;;;;;;;5208435;28;20017;-61
2022/05/31 02:09:10;;;;;;;7.78;7.10;;;;;;;;;;5191279;28;20025;-60
2022/05/31 02:11:41;;;;;;;8.85;8.25;;;;;;;;;;5190751;28;20017;-60
2022/05/31 02:14:11;;;;;;;10.27;8.00;;;;;;;;;;5189911;28;20025;-58
2022/05/31 02:16:41;;;;;;;8.80;8.20;;;;;;;;;;5189702;28;20025;-59
2022/05/31 02:19:15;;;;;;;9.02;8.20;;;;;;;;;;5190393;28;20026;-61
2022/05/31 02:21:45;;;;;;;10.15;9.20;;;;;;;;;;5190682;28;20047;-59
2022/05/31 02:24:15;;;;;;;9.15;8.55;;;;;;;;;;5190338;28;20021;-61
2022/05/31 02:26:49;;;;;;;8.93;8.35;;;;;;;;;;5190375;28;20474;-59
2022/05/31 02:29:24;;;;;;;9.35;8.35;;;;;;;;;;5190320;28;20029;-60
2022/05/31 02:31:59;;;;;;;8.32;7.43;;;;;;;;;;5190567;28;20025;-62
2022/05/31 02:34:35;;;;;;;9.27;8.52;;;;;;;;;;5190463;28;20021;-60
2022/05/31 02:37:05;;;;;;;13.88;9.20;;;;;;;;;;5190637;28;20028;-63
2022/05/31 02:39:36;;;;;;;9.40;8.48;;;;;;;;;;5190606;28;20025;-60
2022/05/31 02:42:07;;;;;;;10.40;9.07;;;;;;;;;;5190173;28;20025;-61
2022/05/31 02:44:38;;;;;;;8.60;7.78;;;;;;;;;;5207893;28;20057;-59
2022/05/31 02:47:08;;;;;;;9.50;8.60;;;;;;;;;;5190183;28;20018;-61
2022/05/31 02:49:39;;;;;;;7.72;7.22;;;;;;;;;;5190298;28;20359;-62
2022/05/31 02:52:10;;;;;;;8.57;8.10;;;;;;;;;;5189938;28;20394;-61
2022/05/31 02:54:40;;;;;;;8.15;7.50;;;;;;;;;;5189682;28;20029;-62
2022/05/31 02:57:10;;;;;;;9.70;8.30;;;;;;;;;;5190177;28;20375;-61
2022/05/31 02:59:44;;;;;;;10.45;9.68;;;;;;;;;;5189909;28;20018;-61
2022/05/31 03:02:15;;;;;;;14.02;9.02;;;;;;;;;;5189950;28;20033;-59
2022/05/31 03:04:45;;;;;;;8.95;8.27;;;;;;;;;;5189564;28;20022;-60
2022/05/31 03:07:15;;;;;;;9.80;8.93;;;;;;;;;;5189980;28;20041;-60
2022/05/31 03:09:46;;;;;;;8.40;7.82;;;;;;;;;;5189596;28;20013;-59
2022/05/31 03:12:17;;;;;;;10.80;9.90;;;;;;;;;;5188368;28;20599;-59
2022/05/31 03:14:49;;;;;;;9.60;8.70;;;;;;;;;;5189360;28;20543;-58
2022/05/31 03:17:28;;;;;;;10.32;9.38;;;;;;;;;;5206851;28;20084;-58
2022/05/31 03:19:59;;;;;;;11.27;10.30;;;;;;;;;;5189966;28;20021;-59
2022/05/31 03:22:31;;;;;;;8.70;8.10;;;;;;;;;;5189545;28;20108;-58
2022/05/31 03:25:05;;;;;;;8.93;8.23;;;;;;;;;;5188372;28;20017;-61
2022/05/31 03:27:35;;;;;;;9.02;8.35;;;;;;;;;;5188933;28;20032;-59
2022/05/31 03:30:06;;;;;;;10.13;9.23;;;;;;;;;;5188978;28;20013;-59
2022/05/31 03:32:36;;;;;;;10.45;9.10;;;;;;;;;;5189160;28;20025;-61
2022/05/31 03:35:07;;;;;;;12.55;10.02;;;;;;;;;;5188954;28;20359;-60
2022/05/31 03:37:38;;;;;;;8.93;8.40;;;;;;;;;;5189338;28;20025;-59
2022/05/31 03:40:09;;;;;;;8.82;8.27;;;;;;;;;;5189020;28;20409;-60
2022/05/31 03:42:40;;;;;;;9.43;8.73;;;;;;;;;;5188538;28;20029;-59
2022/05/31 03:45:10;;;;;;;11.35;10.55;;;;;;;;;;5188154;28;20080;-59
2022/05/31 03:47:40;;;;;;;8.77;8.18;;;;;;;;;;5188433;28;20501;-59
2022/05/31 03:50:10;;;;;;;9.68;8.45;;;;;;;;;;5188499;28;20056;-60
2022/05/31 03:52:41;;;;;;;9.85;9.15;;;;;;;;;;5189016;28;20020;-59
2022/05/31 03:57:47;;;;;;;10.07;8.70;;;;;;;;;;5251024;28;20045;-80
2022/05/31 04:00:17;;;;;;;10.48;9.73;;;;;;;;;;5254901;28;20013;-79
2022/05/31 04:02:48;;;;;;;9.13;8.32;;;;;;;;;;5254644;28;20107;-79
2022/05/31 04:05:18;;;;;;;10.48;9.43;;;;;;;;;;5255124;28;20020;-80
2022/05/31 04:07:52;;;;;;;9.60;8.80;;;;;;;;;;5236764;28;20024;-80
2022/05/31 04:10:22;;;;;;;8.48;7.90;;;;;;;;;;5254153;28;20354;-79
2022/05/31 04:12:52;;;;;;;12.57;8.43;;;;;;;;;;5253979;28;20040;-80
2022/05/31 04:15:23;;;;;;;9.60;7.53;;;;;;;;;;5255582;28;20024;-80
2022/05/31 04:17:53;;;;;;;9.60;8.90;;;;;;;;;;5254707;28;20760;-79
2022/05/31 04:20:24;;;;;;;8.00;7.40;;;;;;;;;;5241288;28;20021;-79
2022/05/31 04:23:58;;;;;;;9.97;9.10;;;;;;;;;;5259090;28;20398;-80
2022/05/31 04:25:47;;;;;;;9.40;8.60;;;;;;;;;;5258230;28;20281;-80
2022/05/31 04:28:17;;;;;;;8.88;8.27;;;;;;;;;;5243106;28;20029;-80
2022/05/31 04:30:47;;;;;;;10.25;9.45;;;;;;;;;;5241045;28;20040;-80
2022/05/31 04:33:17;;;;;;;8.30;7.83;;;;;;;;;;5242551;28;20021;-79
2022/05/31 04:35:48;;;;;;;11.68;10.77;;;;;;;;;;5236402;28;20764;-80
2022/05/31 04:38:18;;;;;;;8.57;7.97;;;;;;;;;;5259291;28;20091;-81
2022/05/31 04:40:48;;;;;;;9.83;8.80;;;;;;;;;;5237359;28;20678;-80
2022/05/31 04:43:19;;;;;;;8.70;8.07;;;;;;;;;;5260623;28;20286;-80
2022/05/31 04:45:49;;;;;;;9.15;8.25;;;;;;;;;;5252769;28;20091;-79
2022/05/31 04:48:19;;;;;;;8.73;8.13;;;;;;;;;;5259977;28;20085;-80
2022/05/31 04:50:50;;;;;;;9.90;9.00;;;;;;;;;;5260741;28;20074;-80
2022/05/31 04:53:20;;;;;;;9.65;8.90;;;;;;;;;;5222935;28;20017;-80
2022/05/31 04:55:50;;;;;;;9.45;8.80;;;;;;;;;;5239085;28;20025;-80
2022/05/31 04:58:20;;;;;;;11.75;10.45;;;;;;;;;;5239728;28;20075;-80
2022/05/31 05:00:54;;;;;;;10.32;9.45;;;;;;;;;;5219659;28;20032;-80
2022/05/31 05:03:24;;;;;;;13.23;12.18;;;;;;;;;;5236253;28;20025;-82
2022/05/31 05:05:58;;;;;;;18.55;11.48;;;;;;;;;;5236681;28;20077;-81
2022/05/31 05:08:29;;;;;;;12.50;11.00;;;;;;;;;;5219170;28;20100;-79
2022/05/31 05:11:00;;;;;;;11.50;10.43;;;;;;;;;;5219028;28;20495;-80
2022/05/31 05:13:31;;;;;;;11.52;10.40;;;;;;;;;;5252206;28;20043;-80
2022/05/31 05:16:01;;;;;;;15.23;9.88;;;;;;;;;;5257122;28;20024;-79
2022/05/31 05:18:32;;;;;;;20.20;10.18;;;;;;;;;;5241589;28;20029;-80
2022/05/31 05:21:04;;;;;;;11.23;10.10;;;;;;;;;;5220521;28;20079;-80
2022/05/31 05:23:34;;;;;;;10.60;9.65;;;;;;;;;;5246457;28;20024;-80
2022/05/31 05:26:05;;;;;;;11.65;10.48;;;;;;;;;;5236180;28;20021;-80
2022/05/31 05:31:30;;;;;;;7.75;7.18;;;;;;;;;;5236923;28;20023;-80
2022/05/31 05:34:01;;;;;;;8.77;8.18;;;;;;;;;;5235188;28;20059;-81
2022/05/31 05:36:32;;;;;;;8.68;7.70;;;;;;;;;;5236420;28;20383;-80
2022/05/31 05:39:02;;;;;;;10.55;9.52;;;;;;;;;;5218612;28;20124;-82
2022/05/31 05:41:32;;;;;;;18.33;9.32;;;;;;;;;;5219336;28;20549;-80
2022/05/31 05:44:03;;;;;;;8.93;8.05;;;;;;;;;;5236063;28;20044;-80
2022/05/31 05:46:33;;;;;;;9.43;8.02;;;;;;;;;;5232922;28;20043;-80
2022/05/31 05:49:03;;;;;;;8.90;8.10;;;;;;;;;;5236544;28;20028;-80
2022/05/31 05:51:34;;;;;;;8.05;7.45;;;;;;;;;;5237261;28;20143;-80
2022/05/31 05:54:04;;;;;;;17.13;9.15;;;;;;;;;;5236742;28;20020;-81
2022/05/31 05:56:35;;;;;;;12.32;11.38;;;;;;;;;;5237530;28;20032;-81
2022/05/31 05:59:06;;;;;;;14.35;12.95;;;;;;;;;;5238108;28;20021;-80
2022/05/31 06:01:51;;;;;;;14.20;12.90;;;;;;;;;;5236861;28;20355;-80
2022/05/31 06:04:21;;;;;;;14.55;13.20;;;;;;;;;;5236938;28;20476;-80
2022/05/31 06:06:59;;;;;;;16.80;15.38;;;;;;;;;;5219083;28;20082;-81
2022/05/31 06:09:32;;;;;;;16.85;15.18;;;;;;;;;;5236974;28;20043;-80
2022/05/31 06:12:07;;;;;;;16.20;14.52;;;;;;;;;;5237036;28;20021;-80
2022/05/31 06:14:40;;;;;;;16.85;15.23;;;;;;;;;;5219726;28;20047;-82
2022/05/31 06:17:13;;;;;;;17.08;13.48;;;;;;;;;;5220759;28;20513;-81
2022/05/31 06:19:44;;;;;;;13.70;12.50;;;;;;;;;;5239799;28;20040;-79
2022/05/31 06:22:15;;;;;;;13.43;12.35;;;;;;;;;;5222248;28;20044;-81
2022/05/31 06:24:46;;;;;;;12.25;11.02;;;;;;;;;;5240273;28;20414;-80
2022/05/31 06:27:16;;;;;;;20.85;14.32;;;;;;;;;;5234202;28;20017;-82
2022/05/31 06:29:47;;;;;;;18.50;11.02;;;;;;;;;;5260646;28;20023;-79
2022/05/31 06:32:17;;;;;;;11.93;10.73;;;;;;;;;;5242323;28;20013;-80
2022/05/31 06:34:47;;;;;;;13.32;11.50;;;;;;;;;;5263134;28;20020;-81
2022/05/31 06:37:18;;;;;;;12.48;10.77;;;;;;;;;;5243061;28;20493;-81
2022/05/31 06:39:48;;;;;;;16.00;11.98;;;;;;;;;;5240418;28;20044;-82
2022/05/31 06:42:19;;;;;;;13.10;12.00;;;;;;;;;;5240106;28;20111;-81
2022/05/31 06:44:49;;;;;;;14.13;12.57;;;;;;;;;;5258242;28;20013;-82
2022/05/31 06:47:19;;;;;;;13.68;12.00;;;;;;;;;;5257092;28;20462;-82
2022/05/31 06:49:49;;;;;;;13.10;11.75;;;;;;;;;;5240095;28;20025;-81
2022/05/31 06:57:59;;;;;;;15.68;14.18;;;;;;;;;;5260545;28;20055;-83
2022/05/31 07:00:29;;;;;;;21.58;15.13;;;;;;;;;;5259586;28;20028;-83
2022/05/31 07:02:59;;;;;;;15.15;13.77;;;;;;;;;;5240640;28;20020;-82
2022/05/31 07:05:30;;;;;;;14.00;12.48;;;;;;;;;;5257797;28;20024;-83
2022/05/31 07:08:00;;;;;;;14.35;12.93;;;;;;;;;;5240255;28;20028;-83
2022/05/31 07:10:31;;;;;;;14.10;12.67;;;;;;;;;;5257604;28;20474;-83
2022/05/31 07:13:01;;;;;;;13.70;12.13;;;;;;;;;;5239738;28;20322;-83
2022/05/31 07:15:31;;;;;;;19.38;13.32;;;;;;;;;;5239818;28;20259;-83
2022/05/31 07:18:04;;;;;;;16.50;15.07;;;;;;;;;;5239672;28;20086;-82
2022/05/31 07:20:34;;;;;;;17.45;15.68;;;;;;;;;;5239176;28;20024;-82
2022/05/31 07:23:05;;;;;;;18.95;16.02;;;;;;;;;;5239690;28;20086;-80
2022/05/31 07:25:35;;;;;;;20.90;14.57;;;;;;;;;;5239344;28;20047;-82
2022/05/31 07:28:05;;;;;;;16.65;12.63;;;;;;;;;;5255823;28;20308;-81
2022/05/31 07:30:36;;;;;;;11.70;10.63;;;;;;;;;;5238226;28;20021;-81
2022/05/31 07:33:06;;;;;;;12.23;10.90;;;;;;;;;;5255653;28;20463;-81
2022/05/31 07:35:38;;;;;;;15.63;11.00;;;;;;;;;;5236820;28;20016;-80
2022/05/31 07:38:09;;;;;;;9.95;9.18;;;;;;;;;;5255510;28;20072;-80
2022/05/31 07:40:39;;;;;;;10.15;9.13;;;;;;;;;;5238609;28;20048;-80
2022/05/31 07:43:10;;;;;;;10.25;9.25;;;;;;;;;;5256701;28;20085;-80
2022/05/31 07:45:41;;;;;;;8.48;7.78;;;;;;;;;;5256330;28;20144;-81
2022/05/31 07:48:11;;;;;;;12.20;11.30;;;;;;;;;;5256344;28;20119;-80
2022/05/31 07:50:41;;;;;;;9.60;8.90;;;;;;;;;;5256661;28;20059;-81
2022/05/31 07:53:11;;;;;;;9.18;8.43;;;;;;;;;;5256798;28;20020;-80
2022/05/31 07:55:42;;;;;;;7.53;7.00;;;;;;;;;;5256235;28;20021;-81
2022/05/31 07:58:30;;;;;;;8.25;6.95;;;;;;;;;;5256548;28;20397;-81
2022/05/31 08:01:02;;;;;;;8.02;7.43;;;;;;;;;;5256661;28;20020;-81
2022/05/31 08:03:34;;;;;;;7.07;6.47;;;;;;;;;;5256679;28;20024;-81
2022/05/31 08:06:06;;;;;;;8.27;7.40;;;;;;;;;;5257883;28;20016;-81
2022/05/31 08:08:37;;;;;;;6.82;6.22;;;;;;;;;;5258671;28;20047;-80
2022/05/31 08:11:09;;;;;;;11.80;7.25;;;;;;;;;;5257355;28;20025;-81
2022/05/31 08:13:40;;;;;;;9.75;7.18;;;;;;;;;;5258619;28;20032;-80
2022/05/31 08:16:11;;;;;;;7.43;6.70;;;;;;;;;;5256959;28;20013;-79
2022/05/31 08:18:42;;;;;;;7.40;6.53;;;;;;;;;;5255351;28;20393;-80
2022/05/31 08:21:14;;;;;;;6.85;5.88;;;;;;;;;;5254126;28;20055;-79
2022/05/31 08:23:44;;;;;;;7.25;6.75;;;;;;;;;;5254356;28;20029;-79
2022/05/31 08:26:15;;;;;;;8.90;6.07;;;;;;;;;;5253947;28;20255;-80
2022/05/31 08:28:45;;;;;;;11.40;7.72;;;;;;;;;;5235852;28;20325;-80
2022/05/31 08:31:17;;;;;;;8.27;7.67;;;;;;;;;;5255077;28;20054;-80
2022/05/31 08:33:48;;;;;;;8.70;7.55;;;;;;;;;;5257911;28;20266;-80
2022/05/31 08:36:18;;;;;;;8.15;7.50;;;;;;;;;;5257617;28;20021;-80
2022/05/31 08:38:49;;;;;;;10.70;9.02;;;;;;;;;;5258179;28;20415;-80
2022/05/31 08:41:19;;;;;;;7.50;6.78;;;;;;;;;;5239210;28;20024;-80
2022/05/31 08:43:49;;;;;;;8.60;8.00;;;;;;;;;;5255394;28;20099;-80
2022/05/31 08:46:32;;;;;;;6.82;6.22;;;;;;;;;;5235922;28;20267;-80
2022/05/31 08:49:21;;;;;;;7.13;6.63;;;;;;;;;;5253186;28;20016;-79
2022/05/31 08:52:03;;;;;;;8.80;8.00;;;;;;;;;;5254245;28;20413;-80
2022/05/31 08:57:28;;;;;;;9.23;8.43;;;;;;;;;;5252632;28;20070;-79
2022/05/31 09:00:11;;;;;;;8.55;7.82;;;;;;;;;;5253139;28;20025;-79
2022/05/31 09:02:48;;;;;;;10.80;9.02;;;;;;;;;;5256949;28;20347;-78
2022/05/31 09:05:18;;;;;;;8.15;7.43;;;;;;;;;;5258803;28;20020;-78
2022/05/31 09:07:50;;;;;;;9.10;8.23;;;;;;;;;;5240586;28;20028;-78
2022/05/31 09:10:27;;;;;;;11.77;9.75;;;;;;;;;;5240409;28;20262;-79
2022/05/31 09:13:02;;;;;;;9.50;8.68;;;;;;;;;;5259843;28;20016;-79
2022/05/31 09:15:39;;;;;;;11.18;7.80;;;;;;;;;;5259956;28;20074;-79
2022/05/31 09:18:19;;;;;;;9.85;7.35;;;;;;;;;;5241405;28;20031;-80
2022/05/31 09:20:49;;;;;;;;;;;;;;;;;;5258333;28;20021;-79
2022/05/31 09:23:28;;;;;;;11.83;7.97;;;;;;;;;;5240950;28;19904;-80
2022/05/31 09:25:58;;;;;;;8.75;8.05;;;;;;;;;;5258114;28;20048;-80
2022/05/31 09:28:39;;;;;;;6.43;5.90;;;;;;;;;;5240264;28;20029;-80
2022/05/31 09:31:18;;;;;;;11.07;7.75;;;;;;;;;;5258814;28;20047;-80
2022/05/31 09:34:15;;;;;;;8.88;8.07;;;;;;;;;;5258359;28;20092;-81
2022/05/31 09:36:52;;;;;;;8.10;7.30;;;;;;;;;;5227318;28;20043;-81
2022/05/31 09:39:25;;;;;;;7.68;7.07;;;;;;;;;;5257727;28;20053;-81
2022/05/31 09:42:06;;;;;;;7.20;6.63;;;;;;;;;;5241533;28;20028;-80
2022/05/31 09:44:36;;;;;;;12.07;5.95;;;;;;;;;;5258931;28;20024;-81
2022/05/31 09:47:14;;;;;;;6.97;6.38;;;;;;;;;;5240174;28;20024;-81
2022/05/31 09:49:49;;;;;;;8.52;6.85;;;;;;;;;;5259749;28;20017;-80
2022/05/31 09:52:19;;;;;;;9.93;6.93;;;;;;;;;;5259388;28;20017;-82
2022/05/31 09:58:13;;;;;;;7.95;7.40;;;;;;;;;;5250327;22;20525;-85
2022/05/31 10:01:01;;;;;;;7.20;6.60;;;;;;;;;;5195346;28;20080;-82
2022/05/31 10:03:52;;;;;;;6.72;6.15;;;;;;;;;;5194869;28;20115;-83
2022/05/31 10:06:24;;;;;;;3.67;3.47;;;;;;;;;;5209721;28;20438;-83
2022/05/31 10:08:54;;;;;;;4.85;4.03;;;;;;;;;;5211181;28;20537;-83
2022/05/31 10:11:30;;;;;;;4.28;3.88;;;;;;;;;;5193547;28;20017;-83
2022/05/31 10:14:06;;;;;;;5.45;5.15;;;;;;;;;;5192255;28;20359;-83
2022/05/31 10:16:37;;;;;;;4.82;4.50;;;;;;;;;;5209880;28;20532;-82
2022/05/31 10:19:20;;;;;;;4.72;4.35;;;;;;;;;;5192786;28;20017;-83
2022/05/31 10:21:50;;;;;;;5.97;5.47;;;;;;;;;;5209001;28;20033;-83
2022/05/31 10:24:22;;;;;;;4.33;4.00;;;;;;;;;;5209235;28;20021;-83
2022/05/31 10:27:18;;;;;;;5.05;4.65;;;;;;;;;;5209096;28;20052;-83
2022/05/31 10:29:52;;;;;;;5.38;5.03;;;;;;;;;;5187926;28;20037;-83
2022/05/31 10:32:22;;;;;;;7.15;3.50;;;;;;;;;;5190897;28;20025;-83
2022/05/31 10:35:05;;;;;;;6.60;3.90;;;;;;;;;;5211398;28;20025;-83
2022/05/31 10:37:35;;;;;;;8.50;4.90;;;;;;;;;;5192500;28;20045;-83
2022/05/31 10:40:08;;;;;;;5.50;3.10;;;;;;;;;;5211806;28;20021;-83
2022/05/31 10:42:40;;;;;;;3.90;3.55;;;;;;;;;;5191329;28;20348;-83
2022/05/31 10:45:19;;;;;;;7.97;5.95;;;;;;;;;;5208543;28;20553;-83
2022/05/31 10:47:49;;;;;;;;;;;;;;;;;;5208481;28;20049;-84
2022/05/31 10:50:21;;;;;;;4.05;3.72;;;;;;;;;;5208879;28;19983;-83
2022/05/31 10:52:58;;;;;;;5.28;3.90;;;;;;;;;;5208199;28;20475;-84
2022/05/31 10:55:28;;;;;;;3.40;3.20;;;;;;;;;;5190007;28;20047;-83
2022/05/31 10:58:07;;;;;;;3.87;3.67;;;;;;;;;;5208174;28;20025;-83
2022/05/31 11:00:47;;;;;;;2.67;2.58;;;;;;;;;;5190273;28;20028;-83
2022/05/31 11:03:17;;;;;;;;;;;;;;;;;;5208176;28;20024;-83
2022/05/31 11:05:54;;;;;;;3.80;3.63;;;;;;;;;;5207902;28;20011;-83
2022/05/31 11:11:29;;;;;;;3.50;3.20;;;;;;;;;;5215146;28;20034;-83
2022/05/31 11:14:19;;;;;;;11.35;3.83;;;;;;;;;;5198700;28;20053;-83
2022/05/31 11:17:00;;;;;;;6.10;4.40;;;;;;;;;;5174986;28;20033;-83
2022/05/31 11:19:48;;;;;;;3.83;3.58;;;;;;;;;;5190303;28;20022;-83
2022/05/31 11:22:30;;;;;;;4.35;4.05;;;;;;;;;;5189981;28;20025;-83
2022/05/31 11:25:19;;;;;;;3.22;3.00;;;;;;;;;;5207386;28;20051;-84
2022/05/31 11:28:08;;;;;;;4.38;2.78;;;;;;;;;;5207695;28;20045;-83
2022/05/31 11:31:00;;;;;;;5.50;3.72;;;;;;;;;;5207288;28;20025;-83
2022/05/31 11:33:43;;;;;;;4.00;3.65;;;;;;;;;;5188198;28;20021;-84
2022/05/31 11:36:32;;;;;;;3.83;3.38;;;;;;;;;;5189247;28;20018;-84
2022/05/31 11:39:02;;;;;;;3.72;3.53;;;;;;;;;;5211052;28;20024;-84
2022/05/31 11:41:41;;;;;;;5.38;2.22;;;;;;;;;;5214037;28;20021;-84
2022/05/31 11:44:21;;;;;;;3.58;3.28;;;;;;;;;;5189446;28;20029;-84
2022/05/31 11:46:56;;;;;;;3.25;2.97;;;;;;;;;;5206473;28;20022;-83
2022/05/31 11:49:26;;;;;;;4.25;3.55;;;;;;;;;;5188651;28;20021;-84
2022/05/31 11:52:09;;;;;;;4.17;3.73;;;;;;;;;;5207442;28;20076;-84
2022/05/31 11:55:25;;;;;;;3.22;3.08;;;;;;;;;;5206885;28;20022;-84
2022/05/31 11:57:38;;;;;;;3.83;3.53;;;;;;;;;;5206643;28;20495;-83
2022/05/31 12:00:11;;;;;;;3.93;3.00;;;;;;;;;;5207564;28;20028;-84
2022/05/31 12:02:45;;;;;;;3.25;3.05;;;;;;;;;;5189630;28;20063;-83
2022/05/31 12:05:18;;;;;;;4.15;3.78;;;;;;;;;;5189737;28;20025;-84
2022/05/31 12:07:54;;;;;;;10.50;4.60;;;;;;;;;;5207380;28;20083;-85
2022/05/31 12:10:27;;;;;;;5.90;4.38;;;;;;;;;;5189395;28;20104;-84
2022/05/31 12:12:58;;;;;;;5.82;2.97;;;;;;;;;;5208389;28;20024;-84
2022/05/31 12:15:30;;;;;;;4.15;3.83;;;;;;;;;;5189619;28;20112;-84
2022/05/31 12:18:15;;;;;;;5.10;4.03;;;;;;;;;;5206586;28;20376;-84
2022/05/31 12:21:02;;;;;;;4.22;3.92;;;;;;;;;;5207266;28;20048;-84
2022/05/31 12:23:49;;;;;;;4.72;3.83;;;;;;;;;;5206601;28;20022;-84
2022/05/31 12:26:30;;;;;;;2.97;2.88;;;;;;;;;;5188355;28;20032;-84
2022/05/31 12:29:03;;;;;;;3.95;3.75;;;;;;;;;;5188548;28;20505;-84
2022/05/31 12:31:36;;;;;;;3.17;2.97;;;;;;;;;;5206883;28;20021;-84
2022/05/31 12:34:18;;;;;;;3.60;3.40;;;;;;;;;;5189209;28;20067;-84
2022/05/31 12:36:55;;;;;;;3.28;2.97;;;;;;;;;;5207226;28;20025;-84
2022/05/31 12:39:30;;;;;;;8.50;4.20;;;;;;;;;;5189924;28;20116;-84
2022/05/31 12:42:12;;;;;;;2.50;2.30;;;;;;;;;;5208239;28;20414;-84
2022/05/31 12:44:47;;;;;;;5.65;3.50;;;;;;;;;;5209376;28;20386;-84
2022/05/31 12:47:17;;;;;;;3.40;3.10;;;;;;;;;;5210910;28;20444;-84
2022/05/31 12:50:04;;;;;;;4.80;3.17;;;;;;;;;;5192226;28;20063;-84
2022/05/31 12:55:14;;;;;;;4.65;3.38;;;;;;;;;;5209017;28;20056;-84
2022/05/31 13:00:33;;;;;;;3.35;3.13;;;;;;;;;;5209512;28;20033;-84
2022/05/31 13:03:26;;;;;;;5.33;4.40;;;;;;;;;;5191490;28;20022;-84
2022/05/31 13:05:58;;;;;;;6.07;2.50;;;;;;;;;;5209820;28;20032;-84
2022/05/31 13:08:47;;;;;;;3.45;3.08;;;;;;;;;;5192470;28;20022;-84
2022/05/31 13:20:20;;;;;;;8.38;3.10;;;;;;;;;;5210057;28;20080;-84
2022/05/31 13:22:58;;;;;;;4.38;3.42;;;;;;;;;;5209496;28;20391;-85
2022/05/31 13:25:30;;;;;;;4.10;2.63;;;;;;;;;;5209417;28;20075;-84
2022/05/31 13:28:02;;;;;;;2.58;2.38;;;;;;;;;;5209196;28;20026;-84
2022/05/31 13:30:40;;;;;;;3.80;3.35;;;;;;;;;;5191360;28;20029;-85
2022/05/31 13:33:19;;;;;;;3.35;3.15;;;;;;;;;;5210720;28;20017;-84
2022/05/31 13:36:02;;;;;;;5.20;4.30;;;;;;;;;;5192533;28;20025;-83
2022/05/31 13:38:34;;;;;;;3.70;2.70;;;;;;;;;;5193175;28;20033;-83
2022/05/31 13:41:07;;;;;;;2.60;2.50;;;;;;;;;;5210657;28;20026;-83
2022/05/31 13:43:57;;;;;;;4.88;3.30;;;;;;;;;;5208754;28;20023;-83
2022/05/31 13:46:37;;;;;;;2.83;2.58;;;;;;;;;;5208881;28;20043;-84
2022/05/31 13:49:16;;;;;;;2.28;2.17;;;;;;;;;;5208994;28;20064;-83
2022/05/31 13:51:48;;;;;;;2.50;2.30;;;;;;;;;;5209899;28;20399;-84
2022/05/31 13:54:21;;;;;;;2.15;2.05;;;;;;;;;;5211076;28;20022;-85
2022/05/31 13:56:57;;;;;;;2.05;1.90;;;;;;;;;;5210049;28;20082;-83
2022/05/31 13:59:35;;;;;;;2.10;2.00;;;;;;;;;;5210656;28;20021;-83
2022/05/31 14:02:11;;;;;;;1.92;1.90;;;;;;;;;;5204537;28;20024;-84
2022/05/31 14:04:41;;;;;;;3.45;3.10;;;;;;;;;;5192081;28;20021;-84
2022/05/31 14:07:17;;;;;;;5.82;2.78;;;;;;;;;;5209887;28;20367;-83
2022/05/31 14:09:54;;;;;;;5.82;3.33;;;;;;;;;;5208772;28;20487;-84
2022/05/31 14:12:26;;;;;;;20.50;2.75;;;;;;;;;;5190818;28;20017;-84
2022/05/31 14:14:57;;;;;;;1.92;1.70;;;;;;;;;;5208984;28;20468;-84
2022/05/31 14:17:35;;;;;;;4.45;1.95;;;;;;;;;;5208024;28;20028;-84
2022/05/31 14:20:20;;;;;;;2.45;2.17;;;;;;;;;;5192513;28;20017;-84
2022/05/31 14:22:52;;;;;;;4.63;2.08;;;;;;;;;;5192787;28;20029;-84
2022/05/31 14:25:24;;;;;;;3.58;2.28;;;;;;;;;;5212397;28;20048;-84
2022/05/31 14:27:54;;;;;;;2.63;2.53;;;;;;;;;;5209705;28;20064;-83
2022/05/31 14:30:34;;;;;;;2.13;2.03;;;;;;;;;;5210462;28;20049;-84
2022/05/31 14:33:07;;;;;;;2.70;2.50;;;;;;;;;;5210839;28;20017;-83
2022/05/31 14:35:44;;;;;;;1.90;1.83;;;;;;;;;;5192082;28;20023;-84
2022/05/31 14:38:38;;;;;;;5.78;2.25;;;;;;;;;;5209042;28;20029;-84
2022/05/31 14:41:31;;;;;;;1.90;1.80;;;;;;;;;;5205822;28;20030;-83
2022/05/31 14:44:02;;;;;;;2.22;2.13;;;;;;;;;;5211722;28;20048;-83
2022/05/31 14:46:34;;;;;;;5.80;2.28;;;;;;;;;;5214282;28;20021;-83
2022/05/31 14:49:26;;;;;;;4.20;2.00;;;;;;;;;;5193411;28;20067;-84
2022/05/31 14:51:56;;;;;;;2.75;1.85;;;;;;;;;;5207025;28;20024;-84
2022/05/31 14:54:32;;;;;;;2.67;2.47;;;;;;;;;;5206899;28;20475;-84
2022/05/31 14:57:07;;;;;;;2.63;2.50;;;;;;;;;;5206790;28;20271;-84
2022/05/31 14:59:37;;;;;;;2.80;2.38;;;;;;;;;;5189095;28;20053;-83
2022/05/31 15:02:18;;;;;;;1.50;1.50;;;;;;;;;;5189254;28;20057;-84
2022/05/31 15:04:53;;;;;;;3.97;2.63;;;;;;;;;;5206699;28;20100;-84
2022/05/31 15:07:25;;;;;;;1.90;1.80;;;;;;;;;;5206440;28;20037;-83
2022/05/31 15:10:11;;;;;;;2.22;2.13;;;;;;;;;;5205266;28;20021;-84
2022/05/31 15:21:21;;;;;;;3.45;1.90;;;;;;;;;;5210357;28;20037;-82
2022/05/31 15:23:52;;;;;;;2.83;1.70;;;;;;;;;;5195387;28;20029;-83
2022/05/31 15:26:22;;;;;;;2.20;2.10;;;;;;;;;;5213327;28;20025;-82
2022/05/31 15:28:52;;;;;;;12.57;3.03;;;;;;;;;;5212682;28;20021;-82
2022/05/31 15:31:27;;;;;;;1.97;1.87;;;;;;;;;;5194897;28;20307;-83
2022/05/31 15:33:57;;;;;;;3.75;3.45;;;;;;;;;;5195091;28;20268;-83
2022/05/31 15:36:28;;;;;;;3.03;2.83;;;;;;;;;;5194664;28;20071;-81
2022/05/31 15:39:00;;;;;;;1.92;1.83;;;;;;;;;;5212183;28;20268;-82
2022/05/31 15:41:35;;;;;;;2.60;2.50;;;;;;;;;;5194492;28;20438;-82
2022/05/31 15:44:06;;;;;;;2.22;2.13;;;;;;;;;;5212209;28;20702;-83
2022/05/31 15:46:36;;;;;;;15.20;3.55;;;;;;;;;;5213363;28;20018;-81
2022/05/31 15:49:07;;;;;;;1.95;1.85;;;;;;;;;;5213562;28;20041;-82
2022/05/31 15:51:42;;;;;;;1.67;1.23;;;;;;;;;;5212784;28;20052;-82
2022/05/31 15:54:15;;;;;;;1.80;1.70;;;;;;;;;;5213817;28;20107;-81
2022/05/31 15:56:45;;;;;;;2.00;1.85;;;;;;;;;;5245290;22;20041;-61
2022/05/31 15:59:19;;;;;;;1.63;1.63;;;;;;;;;;5187472;28;20097;-61
2022/05/31 16:01:50;;;;;;;1.63;1.52;;;;;;;;;;5188104;28;20545;-59